Time;durP1;ratioP1;P1;durP2;ratioP2;P2;SDS_P1;SDS_P2;PMS_P1;PMS_P2;Temp;Humidity;BMP_temperature;BMP_pressure;BME280_temperature;BME280_humidity;BME280_pressure;Samples;Min_cycle;Max_cycle;Signal;HPM_P1;HPM_P2
2023/07/03 00:00:16;;;;;;;9.37;4.67;;;;;;;-145.94;43.87;76003.09;5116023;28;20185;-65
2023/07/03 00:02:49;;;;;;;9.30;4.30;;;;;;;-145.94;44.42;75999.03;5097661;28;20532;-65
2023/07/03 00:05:16;;;;;;;8.40;4.30;;;;;;;-145.94;44.18;76021.44;5115949;28;20226;-65
2023/07/03 00:07:45;;;;;;;12.77;4.20;;;;;;;-145.94;44.80;76023.50;5116106;28;20189;-65
2023/07/03 00:10:11;;;;;;;11.57;3.73;;;;;;;-145.94;44.57;76027.56;5115962;28;20599;-65
2023/07/03 00:12:38;;;;;;;11.27;4.57;;;;;;;-145.94;44.78;76033.69;5116034;28;20197;-65
2023/07/03 00:15:05;;;;;;;13.60;4.60;;;;;;;-145.94;44.49;76033.69;5116274;28;20189;-65
2023/07/03 00:17:32;;;;;;;6.97;4.03;;;;;;;-145.94;45.21;76037.75;5115678;28;20230;-65
2023/07/03 00:19:58;;;;;;;9.43;4.70;;;;;;;-145.94;44.87;76041.84;5115537;28;20181;-65
2023/07/03 00:22:25;;;;;;;10.73;3.63;;;;;;;-145.94;45.32;76047.97;5115790;28;20189;-65
2023/07/03 00:24:51;;;;;;;23.80;4.87;;;;;;;-145.94;45.29;76045.91;5116018;28;20185;-65
2023/07/03 00:27:18;;;;;;;11.77;4.20;;;;;;;-145.94;45.68;76054.06;5115727;28;20238;-65
2023/07/03 00:29:45;;;;;;;12.97;4.60;;;;;;;-145.94;45.64;76056.13;5115399;28;20709;-65
2023/07/03 00:32:11;;;;;;;11.30;5.33;;;;;;;-145.94;45.65;76072.44;5115555;28;20212;-65
2023/07/03 00:34:38;;;;;;;5.80;4.37;;;;;;;-145.94;46.14;76064.25;5097133;28;20238;-65
2023/07/03 00:37:04;;;;;;;13.27;4.77;;;;;;;-145.94;45.89;76072.44;5115776;28;20189;-65
2023/07/03 00:39:31;;;;;;;9.57;5.40;;;;;;;-145.94;46.08;76072.44;5115195;28;20188;-65
2023/07/03 00:41:58;;;;;;;12.77;5.00;;;;;;;-145.94;46.75;76082.63;5096819;28;20209;-65
2023/07/03 00:44:24;;;;;;;14.90;4.77;;;;;;;-145.94;46.39;76078.53;5115345;28;20181;-65
2023/07/03 00:46:51;;;;;;;8.17;4.93;;;;;;;-145.94;46.66;76090.78;5115627;28;20193;-65
2023/07/03 00:49:20;;;;;;;14.73;4.77;;;;;;;-145.94;46.78;76098.94;5096415;28;20212;-65
2023/07/03 00:51:54;;;;;;;16.23;4.40;;;;;;;-145.94;46.84;76096.88;5114618;28;20244;-65
2023/07/03 00:54:21;;;;;;;7.77;4.30;;;;;;;-145.94;47.21;76096.88;5115232;28;20177;-65
2023/07/03 00:56:48;;;;;;;6.70;5.00;;;;;;;-145.94;47.50;76098.94;5114831;28;20180;-65
2023/07/03 00:59:15;;;;;;;9.60;4.27;;;;;;;-145.94;46.93;76098.94;5114787;28;20708;-65
2023/07/03 01:01:48;;;;;;;12.03;5.07;;;;;;;-145.94;46.92;76098.94;5114693;28;20213;-64
2023/07/03 01:04:20;;;;;;;9.77;4.80;;;;;;;-145.94;47.01;76094.84;5096529;28;20189;-65
2023/07/03 01:07:01;;;;;;;9.93;4.83;;;;;;;-145.94;47.64;76105.03;5096388;28;20227;-65
2023/07/03 01:09:35;;;;;;;12.80;4.77;;;;;;;-145.94;47.28;76111.16;5096314;28;20193;-65
2023/07/03 01:12:03;;;;;;;12.27;4.50;;;;;;;-145.94;47.59;76109.13;5115047;28;20209;-65
2023/07/03 01:14:30;;;;;;;10.93;4.87;;;;;;;-145.94;47.90;76119.31;5096363;28;20659;-65
2023/07/03 01:17:00;;;;;;;10.47;5.73;;;;;;;-145.94;47.62;76125.44;5096269;28;20657;-65
2023/07/03 01:19:31;;;;;;;7.60;4.70;;;;;;;-145.94;47.88;76123.41;5114398;28;20216;-65
2023/07/03 01:22:23;;;;;;;12.07;5.37;;;;;;;-145.94;47.55;76125.44;5114883;28;20209;-65
2023/07/03 01:24:55;;;;;;;6.80;5.43;;;;;;;-145.94;47.96;76127.47;5085556;28;20197;-65
2023/07/03 01:27:27;;;;;;;12.73;5.73;;;;;;;-145.94;48.13;76119.31;5114341;28;20201;-64
2023/07/03 01:29:55;;;;;;;12.80;6.40;;;;;;;-145.94;48.28;76119.31;5114466;28;20563;-65
2023/07/03 01:32:26;;;;;;;12.43;5.17;;;;;;;-145.94;48.13;76123.41;5114758;28;20182;-65
2023/07/03 01:34:53;;;;;;;13.27;5.13;;;;;;;-145.94;48.29;76127.47;5114546;28;20257;-65
2023/07/03 01:37:27;;;;;;;10.97;4.83;;;;;;;-145.94;48.25;76125.44;5114400;28;20189;-65
2023/07/03 01:39:56;;;;;;;12.40;6.20;;;;;;;-145.94;48.48;76131.56;5114419;28;20250;-65
2023/07/03 01:42:25;;;;;;;12.13;4.47;;;;;;;-145.94;48.24;76123.41;5114328;28;20196;-65
2023/07/03 01:44:52;;;;;;;22.00;5.00;;;;;;;-145.94;48.60;76125.44;5114335;28;20238;-65
2023/07/03 01:47:20;;;;;;;10.70;5.30;;;;;;;-145.94;48.32;76119.31;5114569;28;20224;-65
2023/07/03 01:49:48;;;;;;;5.73;5.10;;;;;;;-145.94;48.63;76125.44;5113926;28;20201;-65
2023/07/03 01:52:18;;;;;;;14.73;4.60;;;;;;;-145.94;48.48;76119.31;5114137;28;20303;-65
2023/07/03 01:55:04;;;;;;;10.23;4.67;;;;;;;-145.94;48.24;76117.28;5114460;28;20179;-65
2023/07/03 01:57:49;;;;;;;17.70;5.93;;;;;;;-145.94;48.88;76125.44;5095884;28;20192;-65
2023/07/03 02:00:26;;;;;;;18.37;4.83;;;;;;;-145.94;48.70;76121.34;5114049;28;20275;-65
2023/07/03 02:02:56;;;;;;;10.63;5.63;;;;;;;-145.94;48.97;76131.56;5094740;28;20276;-65
2023/07/03 02:05:29;;;;;;;12.73;4.87;;;;;;;-145.94;49.15;76125.44;5114652;28;20554;-65
2023/07/03 02:08:00;;;;;;;16.03;4.67;;;;;;;-145.94;49.19;76129.50;5113773;28;20176;-65
2023/07/03 02:10:27;;;;;;;9.70;5.77;;;;;;;-145.94;49.19;76121.34;5095445;28;20768;-66
2023/07/03 02:12:53;;;;;;;8.80;4.50;;;;;;;-145.94;48.99;76123.41;5095449;28;20200;-65
2023/07/03 02:15:22;;;;;;;12.63;5.57;;;;;;;-145.94;49.20;76129.50;5095420;28;20690;-65
2023/07/03 02:17:53;;;;;;;20.30;5.57;;;;;;;-145.94;49.03;76123.41;5095453;28;20612;-65
2023/07/03 02:20:21;;;;;;;8.40;4.87;;;;;;;-145.94;49.56;76137.66;5095315;28;20580;-65
2023/07/03 02:22:48;;;;;;;16.77;5.60;;;;;;;-145.94;49.73;76131.56;5095375;28;20564;-65
2023/07/03 02:25:15;;;;;;;16.17;5.77;;;;;;;-145.94;49.57;76137.66;5095307;28;20216;-65
2023/07/03 02:27:45;;;;;;;21.37;5.70;;;;;;;-145.94;49.66;76133.59;5114100;28;20176;-65
2023/07/03 02:30:12;;;;;;;21.00;5.13;;;;;;;-145.94;49.76;76137.66;5095090;28;20312;-66
2023/07/03 02:32:40;;;;;;;13.87;5.97;;;;;;;-145.94;49.97;76143.78;5095462;28;20189;-65
2023/07/03 02:35:09;;;;;;;9.20;5.80;;;;;;;-145.94;49.77;76141.75;5095230;28;20215;-65
2023/07/03 02:37:36;;;;;;;20.20;5.33;;;;;;;-145.94;49.95;76143.78;5095266;28;20200;-65
2023/07/03 02:40:13;;;;;;;13.77;5.53;;;;;;;-145.94;50.16;76131.56;5113405;28;20610;-65
2023/07/03 02:42:40;;;;;;;8.03;4.63;;;;;;;-145.94;49.88;76137.66;5113700;28;20204;-65
2023/07/03 02:45:07;;;;;;;20.00;5.27;;;;;;;-145.94;50.18;76141.75;5095186;28;20193;-65
2023/07/03 02:47:38;;;;;;;14.77;5.53;;;;;;;-145.94;50.34;76151.94;5095125;28;20731;-65
2023/07/03 02:50:08;;;;;;;9.63;5.60;;;;;;;-145.94;50.47;76151.94;5095248;28;20220;-65
2023/07/03 02:52:36;;;;;;;16.23;6.03;;;;;;;-145.94;50.48;76147.84;5113605;28;20177;-65
2023/07/03 02:55:05;;;;;;;19.00;5.63;;;;;;;-145.94;50.77;76151.94;5095240;28;20197;-64
2023/07/03 02:57:32;;;;;;;14.93;5.10;;;;;;;-145.94;50.78;76156.00;5095005;28;20185;-65
2023/07/03 02:59:58;;;;;;;12.40;5.27;;;;;;;-145.94;50.81;76147.84;5095472;28;20663;-66
2023/07/03 03:02:26;;;;;;;15.47;5.23;;;;;;;-145.94;50.88;76166.22;5095017;28;20284;-65
2023/07/03 03:04:52;;;;;;;20.07;6.27;;;;;;;-145.94;51.01;76160.09;5094974;28;20200;-65
2023/07/03 03:07:19;;;;;;;19.30;5.50;;;;;;;-145.94;51.18;76162.13;5094936;28;20283;-65
2023/07/03 03:09:46;;;;;;;19.40;5.37;;;;;;;-145.94;51.24;76160.09;5095632;28;20193;-65
2023/07/03 03:12:12;;;;;;;17.20;5.07;;;;;;;-145.94;51.46;76170.28;5094749;28;20215;-65
2023/07/03 03:14:40;;;;;;;10.43;5.00;;;;;;;-145.94;51.62;76178.44;5098095;28;20208;-65
2023/07/03 03:17:06;;;;;;;19.43;5.77;;;;;;;-145.94;51.20;76170.28;5117118;28;20185;-65
2023/07/03 03:19:33;;;;;;;15.10;6.00;;;;;;;-145.94;51.50;76176.41;5098450;28;20280;-65
2023/07/03 03:22:00;;;;;;;17.60;6.00;;;;;;;-145.94;51.75;76176.41;5098418;28;20205;-65
2023/07/03 03:24:26;;;;;;;23.97;5.70;;;;;;;-145.94;51.76;76174.38;5098435;28;20193;-65
2023/07/03 03:26:53;;;;;;;15.47;5.67;;;;;;;-145.94;52.20;76170.28;5116690;28;20185;-65
2023/07/03 03:29:19;;;;;;;19.73;5.83;;;;;;;-145.94;52.33;76184.56;5116565;28;20207;-65
2023/07/03 03:31:46;;;;;;;19.13;5.60;;;;;;;-145.94;52.57;76180.47;5098233;28;20216;-65
2023/07/03 03:34:12;;;;;;;20.77;5.73;;;;;;;-145.94;52.43;76178.44;5116537;28;20182;-65
2023/07/03 03:36:39;;;;;;;16.33;5.43;;;;;;;-145.94;52.62;76190.69;5098139;28;20188;-65
2023/07/03 03:39:07;;;;;;;17.47;6.57;;;;;;;-145.94;52.42;76184.56;5098759;28;20254;-65
2023/07/03 03:41:35;;;;;;;21.73;6.20;;;;;;;-145.94;52.79;76192.72;5098021;28;20232;-65
2023/07/03 03:44:02;;;;;;;13.07;4.90;;;;;;;-145.94;52.83;76194.75;5098939;28;20189;-65
2023/07/03 03:46:28;;;;;;;10.70;6.07;;;;;;;-145.94;52.70;76184.56;5098287;28;20583;-65
2023/07/03 03:48:55;;;;;;;17.33;5.37;;;;;;;-145.94;53.12;76182.53;5097952;28;20192;-65
2023/07/03 03:51:22;;;;;;;15.83;5.17;;;;;;;-145.94;53.55;76182.53;5097739;28;20217;-65
2023/07/03 03:53:48;;;;;;;19.53;5.43;;;;;;;-145.94;53.47;76178.44;5097819;28;20224;-65
2023/07/03 03:56:15;;;;;;;15.87;5.73;;;;;;;-145.94;53.54;76194.75;5097741;28;20724;-65
2023/07/03 03:58:41;;;;;;;13.30;5.33;;;;;;;-145.94;53.81;76194.75;5116580;28;20189;-65
2023/07/03 04:01:08;;;;;;;12.10;5.37;;;;;;;-145.94;53.92;76204.94;5097694;28;20640;-65
2023/07/03 04:03:35;;;;;;;18.47;5.87;;;;;;;-145.94;54.11;76211.06;5116520;28;20177;-64
2023/07/03 04:06:01;;;;;;;21.07;6.43;;;;;;;-145.94;54.42;76211.06;5115803;28;20189;-64
2023/07/03 04:08:28;;;;;;;19.03;5.67;;;;;;;-145.94;54.63;76211.06;5115808;28;20227;-64
2023/07/03 04:10:54;;;;;;;17.70;6.17;;;;;;;-145.94;55.07;76215.13;5115923;28;20216;-65
2023/07/03 04:13:21;;;;;;;24.07;5.93;;;;;;;-145.94;55.01;76211.06;5115974;28;20693;-65
2023/07/03 04:16:00;;;;;;;23.03;6.33;;;;;;;-145.94;55.12;76204.94;5115982;28;20213;-65
2023/07/03 04:18:28;;;;;;;12.50;6.13;;;;;;;-145.94;55.49;76211.06;5116031;28;20169;-65
2023/07/03 04:20:55;;;;;;;26.97;5.87;;;;;;;-145.94;55.32;76204.94;5115816;28;20236;-65
2023/07/03 04:23:22;;;;;;;20.27;6.73;;;;;;;-145.94;55.72;76198.81;5115526;28;20192;-65
2023/07/03 04:25:48;;;;;;;21.13;5.53;;;;;;;-145.94;55.49;76186.59;5114855;28;20651;-65
2023/07/03 04:28:20;;;;;;;18.97;6.23;;;;;;;-145.94;55.74;76186.59;5115460;28;20177;-65
2023/07/03 04:30:47;;;;;;;24.07;5.87;;;;;;;-145.94;55.82;76194.75;5115234;28;20577;-65
2023/07/03 04:33:15;;;;;;;22.73;7.03;;;;;;;-145.94;55.77;76184.56;5115330;28;20553;-65
2023/07/03 04:35:41;;;;;;;14.20;6.00;;;;;;;-145.94;55.89;76194.75;5115784;28;20594;-65
2023/07/03 04:38:08;;;;;;;16.63;5.77;;;;;;;-145.94;56.35;76190.69;5115794;28;20197;-65
2023/07/03 04:40:36;;;;;;;18.77;5.77;;;;;;;-145.94;56.18;76178.44;5115349;28;20572;-65
2023/07/03 04:43:02;;;;;;;25.10;7.53;;;;;;;-145.94;56.33;76180.47;5115133;28;20234;-64
2023/07/03 04:45:31;;;;;;;25.70;6.53;;;;;;;-145.94;56.43;76174.38;5115443;28;20548;-64
2023/07/03 04:47:58;;;;;;;20.93;5.80;;;;;;;-145.94;56.58;76164.16;5114987;28;20282;-64
2023/07/03 04:50:25;;;;;;;22.00;6.90;;;;;;;-145.94;56.53;76160.09;5115145;28;20205;-65
2023/07/03 04:52:52;;;;;;;19.40;6.03;;;;;;;-145.94;56.12;76158.06;5115214;28;20561;-65
2023/07/03 04:55:21;;;;;;;20.50;6.97;;;;;;;-145.94;56.79;76160.09;5114890;28;20254;-64
2023/07/03 04:57:47;;;;;;;25.97;6.80;;;;;;;-145.94;56.54;76147.84;5114918;28;20189;-64
2023/07/03 05:00:18;;;;;;;29.47;6.37;;;;;;;-145.94;56.09;76143.78;5115042;28;20188;-64
2023/07/03 05:02:49;;;;;;;21.13;6.13;;;;;;;-145.94;56.37;76143.78;5115066;28;20578;-65
2023/07/03 05:05:18;;;;;;;17.67;6.37;;;;;;;-145.94;56.45;76137.66;5114789;28;20205;-64
2023/07/03 05:07:45;;;;;;;17.17;6.40;;;;;;;-145.94;56.00;76133.59;5114711;28;20181;-64
2023/07/03 05:10:14;;;;;;;10.87;6.03;;;;;;;-145.94;56.27;76131.56;5115082;28;20184;-65
2023/07/03 05:12:42;;;;;;;24.13;6.53;;;;;;;-145.94;55.91;76127.47;5114590;28;20181;-65
2023/07/03 05:15:11;;;;;;;21.90;6.30;;;;;;;-145.94;56.40;76125.44;5115161;28;20177;-65
2023/07/03 05:17:38;;;;;;;26.13;6.17;;;;;;;-145.94;55.79;76131.56;5115000;28;20623;-65
2023/07/03 05:20:13;;;;;;;21.57;6.27;;;;;;;-145.94;56.29;76127.47;5114711;28;20248;-65
2023/07/03 05:22:41;;;;;;;25.17;6.30;;;;;;;-145.94;56.59;76111.16;5114748;28;20169;-65
2023/07/03 05:25:10;;;;;;;16.90;6.30;;;;;;;-145.94;55.65;76107.09;5114665;28;20184;-65
2023/07/03 05:27:37;;;;;;;24.27;5.63;;;;;;;-145.94;55.55;76117.28;5114335;28;20655;-65
2023/07/03 05:30:05;;;;;;;24.80;6.60;;;;;;;-145.94;56.29;76127.47;5113859;28;20185;-65
2023/07/03 05:32:32;;;;;;;29.43;6.27;;;;;;;-145.94;55.60;76125.44;5114136;28;20201;-65
2023/07/03 05:35:02;;;;;;;16.60;5.83;;;;;;;-145.94;56.15;76129.50;5114270;28;20193;-65
2023/07/03 05:37:28;;;;;;;19.83;5.57;;;;;;;-145.94;56.40;76133.59;5114067;28;20254;-65
2023/07/03 05:39:55;;;;;;;11.30;5.80;;;;;;;-145.94;56.63;76131.56;5114585;28;20186;-66
2023/07/03 05:42:22;;;;;;;22.77;5.47;;;;;;;-145.94;56.35;76137.66;5114450;28;20221;-65
2023/07/03 05:44:49;;;;;;;27.07;6.50;;;;;;;-145.94;56.51;76131.56;5114058;28;20197;-65
2023/07/03 05:47:16;;;;;;;17.03;6.20;;;;;;;-145.94;56.62;76135.63;5114037;28;20181;-65
2023/07/03 05:49:43;;;;;;;26.77;7.07;;;;;;;-145.94;56.27;76131.56;5114501;28;20280;-65
2023/07/03 05:52:11;;;;;;;18.87;5.97;;;;;;;-145.94;56.20;76129.50;5113698;28;20213;-65
2023/07/03 05:54:38;;;;;;;17.83;5.93;;;;;;;-145.94;56.72;76131.56;5113923;28;20552;-65
2023/07/03 05:57:10;;;;;;;20.90;6.63;;;;;;;-145.94;56.08;76129.50;5113924;28;20291;-65
2023/07/03 05:59:38;;;;;;;15.63;6.33;;;;;;;-145.94;56.29;76123.41;5114162;28;20195;-65
2023/07/03 06:02:08;;;;;;;15.10;6.17;;;;;;;-145.94;56.73;76121.34;5113836;28;20550;-65
2023/07/03 06:04:35;;;;;;;19.73;5.83;;;;;;;-145.94;56.57;76125.44;5114350;28;20230;-65
2023/07/03 06:07:01;;;;;;;26.60;5.53;;;;;;;-145.94;56.75;76121.34;5113797;28;20265;-65
2023/07/03 06:09:28;;;;;;;21.90;5.97;;;;;;;-145.94;56.82;76109.13;5113981;28;20173;-65
2023/07/03 06:11:58;;;;;;;30.70;6.00;;;;;;;-145.94;56.60;76115.25;5113599;28;20254;-65
2023/07/03 06:14:25;;;;;;;31.07;6.33;;;;;;;-145.94;56.53;76121.34;5114280;28;20169;-65
2023/07/03 06:16:52;;;;;;;21.60;5.27;;;;;;;-145.94;56.67;76119.31;5113906;28;20234;-65
2023/07/03 06:19:19;;;;;;;16.57;5.67;;;;;;;-145.94;56.02;76123.41;5113647;28;20181;-66
2023/07/03 06:21:46;;;;;;;10.30;4.80;;;;;;;-145.94;56.01;76121.34;5113783;28;20770;-65
2023/07/03 06:24:14;;;;;;;14.50;5.20;;;;;;;-145.94;55.47;76125.44;5114097;28;20639;-66
2023/07/03 06:26:43;;;;;;;16.83;5.27;;;;;;;-145.94;55.34;76121.34;5113896;28;20231;-65
2023/07/03 06:29:11;;;;;;;16.10;5.60;;;;;;;-145.94;55.96;76123.41;5113775;28;20178;-65
2023/07/03 06:31:40;;;;;;;14.60;5.43;;;;;;;-145.94;56.31;76123.41;5113527;28;20205;-65
2023/07/03 06:34:07;;;;;;;16.53;5.10;;;;;;;-145.94;56.44;76119.31;5113762;28;20192;-65
2023/07/03 06:36:34;;;;;;;16.17;5.20;;;;;;;-145.94;56.20;76100.97;5113640;28;20181;-65
2023/07/03 06:39:04;;;;;;;16.87;5.73;;;;;;;-145.94;55.91;76080.56;5113693;28;20611;-65
2023/07/03 06:41:34;;;;;;;13.10;5.53;;;;;;;-145.94;56.20;76078.53;5113455;28;20257;-65
2023/07/03 06:44:02;;;;;;;30.60;5.73;;;;;;;-145.94;55.16;76076.50;5114449;28;20213;-65
2023/07/03 06:46:29;;;;;;;11.30;4.93;;;;;;;-145.94;55.71;76080.56;5113336;28;20659;-65
2023/07/03 06:48:57;;;;;;;11.20;5.87;;;;;;;-145.94;55.82;76064.25;5115513;28;20203;-65
2023/07/03 06:51:24;;;;;;;16.70;5.93;;;;;;;-145.94;54.58;76074.47;5117187;28;20216;-65
2023/07/03 06:53:51;;;;;;;8.67;5.40;;;;;;;-145.94;54.46;76074.47;5117282;28;20233;-65
2023/07/03 06:56:19;;;;;;;18.87;5.37;;;;;;;-145.94;55.21;76094.84;5117534;28;20598;-65
2023/07/03 06:58:49;;;;;;;23.13;6.77;;;;;;;-145.94;54.73;76094.84;5117458;28;20201;-65
2023/07/03 07:01:18;;;;;;;16.57;6.97;;;;;;;-145.94;55.45;76107.09;5117338;28;20205;-65
2023/07/03 07:03:44;;;;;;;14.17;6.80;;;;;;;-145.94;55.22;76107.09;5117622;28;20647;-65
2023/07/03 07:06:17;;;;;;;24.87;7.13;;;;;;;-145.94;55.19;76103.00;5116987;28;20181;-65
2023/07/03 07:08:44;;;;;;;16.50;6.30;;;;;;;-145.94;54.99;76074.47;5117316;28;20253;-65
2023/07/03 07:11:13;;;;;;;14.70;5.60;;;;;;;-145.94;55.23;76078.53;5116813;28;20209;-65
2023/07/03 07:13:42;;;;;;;13.10;5.90;;;;;;;-145.94;55.84;76082.63;5116919;28;20231;-65
2023/07/03 07:16:19;;;;;;;15.17;6.57;;;;;;;-145.94;55.45;76078.53;5117183;28;20185;-65
2023/07/03 07:18:57;;;;;;;25.77;7.53;;;;;;;-145.94;54.81;76066.31;5117141;28;20521;-65
2023/07/03 07:21:24;;;;;;;23.30;6.90;;;;;;;-145.94;54.87;76076.50;5117166;28;20205;-65
2023/07/03 07:23:55;;;;;;;26.80;5.57;;;;;;;-145.94;55.15;76078.53;5117080;28;20189;-65
2023/07/03 07:26:23;;;;;;;11.80;5.73;;;;;;;-145.94;55.24;76084.66;5117016;28;20185;-65
2023/07/03 07:28:50;;;;;;;11.10;5.97;;;;;;;-145.94;54.75;76076.50;5116654;28;20185;-65
2023/07/03 07:31:19;;;;;;;20.30;6.00;;;;;;;-145.94;54.97;76086.69;5116729;28;20220;-65
2023/07/03 07:33:45;;;;;;;5.83;5.20;;;;;;;-145.94;54.80;76086.69;5116809;28;20185;-65
2023/07/03 07:36:13;;;;;;;20.40;6.67;;;;;;;-145.94;54.38;76074.47;5116627;28;20186;-65
2023/07/03 07:38:40;;;;;;;13.37;5.80;;;;;;;-145.94;53.94;76076.50;5116740;28;20193;-65
2023/07/03 07:41:07;;;;;;;13.80;5.67;;;;;;;-145.94;54.30;76078.53;5116392;28;20205;-65
2023/07/03 07:43:33;;;;;;;9.80;5.10;;;;;;;-145.94;54.24;76064.25;5116626;28;20185;-66
2023/07/03 07:46:00;;;;;;;13.37;5.20;;;;;;;-145.94;53.49;76058.16;5116330;28;20245;-65
2023/07/03 07:48:27;;;;;;;17.50;5.93;;;;;;;-145.94;54.02;76047.97;5116594;28;20182;-65
2023/07/03 07:50:57;;;;;;;11.13;5.93;;;;;;;-145.94;53.90;76043.88;5116389;28;20209;-65
2023/07/03 07:53:23;;;;;;;19.27;5.87;;;;;;;-145.94;53.92;76039.81;5116154;28;20181;-65
2023/07/03 07:55:50;;;;;;;23.13;5.27;;;;;;;-145.94;54.34;76031.66;5116607;28;20188;-65
2023/07/03 07:58:17;;;;;;;15.50;5.93;;;;;;;-145.94;54.04;76027.56;5116626;28;20185;-65
2023/07/03 08:00:44;;;;;;;10.40;6.80;;;;;;;-145.94;53.53;76007.19;5115088;28;20212;-65
2023/07/03 08:03:10;;;;;;;6.67;5.80;;;;;;;-145.94;53.21;75988.84;5116423;28;20260;-65
2023/07/03 08:05:37;;;;;;;9.60;6.43;;;;;;;-145.94;52.08;75988.84;5115822;28;20196;-65
2023/07/03 08:08:05;;;;;;;20.67;6.80;;;;;;;-145.94;51.77;75990.88;5116225;28;20174;-65
2023/07/03 08:10:31;;;;;;;17.10;6.67;;;;;;;-145.94;52.97;75984.75;5116004;28;20201;-66
2023/07/03 08:12:58;;;;;;;12.60;6.17;;;;;;;-145.94;52.83;75984.75;5116327;28;20208;-65
2023/07/03 08:15:25;;;;;;;15.30;6.27;;;;;;;-145.94;52.15;75964.38;5116345;28;20189;-65
2023/07/03 08:17:51;;;;;;;16.57;6.10;;;;;;;-145.94;51.32;75958.25;5115894;28;20250;-65
2023/07/03 08:20:17;;;;;;;11.73;6.07;;;;;;;-145.94;51.66;75943.97;5116166;28;20209;-65
2023/07/03 08:22:44;;;;;;;12.53;6.03;;;;;;;-145.94;50.76;75952.13;5115952;28;20582;-65
2023/07/03 08:25:11;;;;;;;9.53;5.00;;;;;;;-145.94;51.16;75962.34;5116942;28;20165;-65
2023/07/03 08:27:37;;;;;;;9.47;5.00;;;;;;;-145.94;50.64;75966.41;5097245;28;20189;-65
2023/07/03 08:30:05;;;;;;;17.60;5.53;;;;;;;-145.94;51.34;75974.56;5115421;28;20238;-65
2023/07/03 08:32:31;;;;;;;18.47;5.47;;;;;;;-145.94;51.53;75990.88;5115348;28;20683;-65
2023/07/03 08:34:58;;;;;;;8.77;4.80;;;;;;;-145.94;51.24;75988.84;5115969;28;20252;-65
2023/07/03 08:37:29;;;;;;;13.37;5.83;;;;;;;-145.94;51.01;76007.19;5115331;28;20589;-66
2023/07/03 08:39:56;;;;;;;9.10;5.23;;;;;;;-145.94;51.21;76021.44;5115191;28;20186;-67
2023/07/03 08:42:32;;;;;;;15.30;4.30;;;;;;;-145.94;52.00;76033.69;5115208;28;20177;-65
2023/07/03 08:45:01;;;;;;;12.97;5.80;;;;;;;-145.94;52.64;76031.66;5115405;28;20184;-65
2023/07/03 08:47:31;;;;;;;9.43;5.20;;;;;;;-145.94;52.57;76033.69;5115368;28;20648;-65
2023/07/03 08:50:02;;;;;;;7.43;4.87;;;;;;;-145.94;52.65;76039.81;5115510;28;20192;-65
2023/07/03 08:52:49;;;;;;;15.63;5.80;;;;;;;-145.94;52.06;76033.69;5115281;28;20197;-65
2023/07/03 08:55:20;;;;;;;14.07;5.63;;;;;;;-145.94;53.07;76039.81;5114905;28;20185;-65
2023/07/03 08:57:47;;;;;;;9.63;5.33;;;;;;;-145.94;52.90;76023.50;5115450;28;20611;-65
2023/07/03 09:00:13;;;;;;;15.10;5.27;;;;;;;-145.94;52.51;76017.38;5115015;28;20189;-65
2023/07/03 09:03:00;;;;;;;9.93;5.10;;;;;;;-145.94;51.82;76013.28;5115144;28;20248;-65
2023/07/03 09:05:48;;;;;;;15.70;5.53;;;;;;;-145.94;51.96;76003.09;5115457;28;20260;-65
2023/07/03 09:08:26;;;;;;;13.63;4.83;;;;;;;-145.94;52.48;75994.94;5114820;28;20196;-65
2023/07/03 09:10:53;;;;;;;8.17;4.87;;;;;;;-145.94;51.89;75976.59;5114122;28;20209;-65
2023/07/03 09:13:29;;;;;;;15.73;6.20;;;;;;;-145.94;51.41;75976.59;5114519;28;20686;-65
2023/07/03 09:16:07;;;;;;;9.17;4.47;;;;;;;-145.94;51.44;75972.53;5114838;28;20177;-65
2023/07/03 09:18:51;;;;;;;14.50;4.43;;;;;;;-145.94;50.54;75970.47;5114557;28;20177;-65
2023/07/03 09:21:19;;;;;;;8.37;5.07;;;;;;;-145.94;51.08;75972.53;5114683;28;20212;-65
2023/07/03 09:24:02;;;;;;;9.17;4.63;;;;;;;-145.94;50.83;75982.72;5114972;28;20234;-65
2023/07/03 09:26:50;;;;;;;18.33;4.90;;;;;;;-145.94;50.77;75970.47;5114714;28;20576;-65
2023/07/03 09:29:17;;;;;;;17.73;5.43;;;;;;;-145.94;51.19;75966.41;5114289;28;20193;-65
2023/07/03 09:31:45;;;;;;;14.17;5.03;;;;;;;-145.94;50.21;75964.38;5114188;28;20201;-65
2023/07/03 09:34:12;;;;;;;8.83;5.07;;;;;;;-145.94;49.58;75948.06;5114175;28;20181;-65
2023/07/03 09:36:41;;;;;;;9.90;4.93;;;;;;;-145.94;49.42;75943.97;5114432;28;20185;-65
2023/07/03 09:39:19;;;;;;;14.90;5.20;;;;;;;-145.94;48.68;75921.56;5114095;28;20720;-65
2023/07/03 09:41:45;;;;;;;13.73;5.30;;;;;;;-145.94;48.66;75870.59;5114334;28;20269;-65
2023/07/03 09:44:16;;;;;;;10.70;4.23;;;;;;;-145.94;44.87;75862.44;5114619;28;20598;-65
2023/07/03 09:46:45;;;;;;;6.60;4.13;;;;;;;-145.94;44.17;75862.44;5114005;28;20189;-65
2023/07/03 09:49:28;;;;;;;10.07;4.57;;;;;;;-145.94;43.82;75880.78;5114001;28;20288;-65
2023/07/03 09:51:57;;;;;;;11.13;4.73;;;;;;;-145.94;43.47;75897.09;5114069;28;20213;-66
2023/07/03 09:54:28;;;;;;;6.40;4.17;;;;;;;-145.94;43.99;75919.50;5113949;28;20173;-66
2023/07/03 09:56:56;;;;;;;13.87;4.53;;;;;;;-145.94;44.39;75931.75;5113959;28;20209;-66
2023/07/03 09:59:24;;;;;;;12.10;4.60;;;;;;;-145.94;44.67;75929.72;5114921;28;20538;-65
2023/07/03 10:01:57;;;;;;;8.33;4.00;;;;;;;-145.94;44.60;75933.78;5113242;28;20200;-66
2023/07/03 10:04:30;;;;;;;12.60;4.83;;;;;;;-145.94;43.62;75935.81;5113804;28;20543;-65
2023/07/03 10:07:04;;;;;;;8.33;4.67;;;;;;;-145.94;44.18;75893.00;5113777;28;20174;-65
2023/07/03 10:09:33;;;;;;;11.30;4.43;;;;;;;-145.94;45.01;75846.13;5114248;28;20181;-66
2023/07/03 10:12:09;;;;;;;8.50;4.00;;;;;;;-145.94;43.49;75831.84;5113869;28;20213;-65
2023/07/03 10:14:43;;;;;;;10.03;3.87;;;;;;;-145.94;43.29;75787.00;5114291;28;20170;-65
2023/07/03 10:17:12;;;;;;;11.27;4.37;;;;;;;-145.94;41.75;75815.53;5113984;28;20624;-66
2023/07/03 10:19:43;;;;;;;3.77;3.47;;;;;;;-145.94;41.81;75840.00;5113966;28;20174;-66
2023/07/03 10:22:12;;;;;;;3.80;3.33;;;;;;;-145.94;41.26;75842.03;5113685;28;20205;-66
2023/07/03 10:24:41;;;;;;;11.43;3.93;;;;;;;-145.94;41.43;75831.84;5117225;28;20716;-66
2023/07/03 10:27:07;;;;;;;4.67;3.83;;;;;;;-145.94;42.52;75833.88;5117763;28;20226;-65
2023/07/03 10:29:46;;;;;;;8.53;3.87;;;;;;;-145.94;42.07;75813.50;5117638;28;20607;-65
2023/07/03 10:32:16;;;;;;;11.80;3.57;;;;;;;-145.94;40.62;75817.59;5117859;28;20684;-66
2023/07/03 10:34:46;;;;;;;15.43;3.60;;;;;;;-145.94;40.88;75799.22;5117675;28;20280;-65
2023/07/03 10:37:17;;;;;;;14.03;3.70;;;;;;;-145.94;40.96;75795.16;5117981;28;20601;-65
2023/07/03 10:39:59;;;;;;;5.00;3.37;;;;;;;-145.94;41.02;75766.63;5117943;28;20180;-65
2023/07/03 10:42:34;;;;;;;7.47;3.47;;;;;;;-145.94;39.66;75760.50;5118141;28;20256;-66
2023/07/03 10:45:13;;;;;;;9.37;3.53;;;;;;;-145.94;40.44;75762.53;5118377;28;20513;-65
2023/07/03 10:47:47;;;;;;;6.97;3.77;;;;;;;-145.94;40.90;75762.53;5117554;28;20181;-65
2023/07/03 10:50:16;;;;;;;9.93;3.50;;;;;;;-145.94;40.11;75784.97;5117662;28;20170;-66
2023/07/03 10:53:03;;;;;;;8.03;3.30;;;;;;;-145.94;39.90;75772.72;5117875;28;20213;-65
2023/07/03 10:55:39;;;;;;;17.00;3.67;;;;;;;-145.94;41.35;75780.88;5117523;28;20546;-65
2023/07/03 10:58:11;;;;;;;3.60;3.40;;;;;;;-145.94;41.58;75740.13;5117581;28;20226;-65
2023/07/03 11:00:59;;;;;;;3.63;3.43;;;;;;;-145.94;39.41;75709.53;5117196;28;20690;-66
2023/07/03 11:03:40;;;;;;;8.10;3.87;;;;;;;-145.94;39.84;75695.25;5117450;28;20199;-65
2023/07/03 11:06:35;;;;;;;3.80;3.40;;;;;;;-145.94;38.74;75693.22;5117120;28;20192;-66
2023/07/03 11:09:05;;;;;;;5.30;3.70;;;;;;;-145.94;38.17;75693.22;5117310;28;20195;-65
2023/07/03 11:11:42;;;;;;;5.30;3.47;;;;;;;-145.94;39.12;75721.75;5117322;28;20604;-65
2023/07/03 11:14:49;;;;;;;11.13;3.07;;;;;;;-145.94;39.37;75729.91;5117528;28;20265;-66
2023/07/03 11:17:36;;;;;;;3.07;2.87;;;;;;;-145.94;39.03;75699.34;5117454;28;20631;-66
2023/07/03 11:20:26;;;;;;;8.90;3.60;;;;;;;-145.94;39.07;75674.88;5117049;28;20559;-65
2023/07/03 11:23:05;;;;;;;11.87;3.63;;;;;;;-145.94;38.15;75676.91;5068082;28;20652;-66